Time;durP1;ratioP1;P1;durP2;ratioP2;P2;SDS_P1;SDS_P2;PMS_P1;PMS_P2;Temp;Humidity;BMP_temperature;BMP_pressure;BME280_temperature;BME280_humidity;BME280_pressure;Samples;Min_cycle;Max_cycle;Signal;HPM_P1;HPM_P2
2022/07/08 00:02:22;;;;;;;16.80;2.83;;;;;;;-141.50;100.00;63355.56;4997578;28;20049;-79
2022/07/08 00:04:49;;;;;;;17.83;3.13;;;;;;;-141.50;100.00;63355.56;5013158;28;20042;-80
2022/07/08 00:07:18;;;;;;;30.20;3.50;;;;;;;-141.50;100.00;63355.56;5013749;28;20069;-80
2022/07/08 00:09:45;;;;;;;17.52;3.30;;;;;;;-141.50;100.00;63355.56;5013055;28;20049;-80
2022/07/08 00:12:11;;;;;;;18.10;3.08;;;;;;;-141.50;100.00;63355.56;5014183;28;20124;-80
2022/07/08 00:14:38;;;;;;;21.98;3.80;;;;;;;-141.50;100.00;63355.56;5013696;28;20049;-80
2022/07/08 00:17:04;;;;;;;15.93;3.05;;;;;;;-141.50;100.00;63355.56;5014565;28;20115;-82
2022/07/08 00:19:31;;;;;;;22.60;2.92;;;;;;;-141.50;100.00;63355.56;5013693;28;20073;-79
2022/07/08 00:22:02;;;;;;;24.15;3.42;;;;;;;-141.50;100.00;63355.56;5013654;28;20108;-82
2022/07/08 00:24:28;;;;;;;18.73;3.40;;;;;;;-141.50;100.00;63355.56;5011954;28;20062;-80
2022/07/08 00:26:55;;;;;;;13.27;2.90;;;;;;;-141.50;100.00;63355.56;5012425;28;20074;-81
2022/07/08 00:29:21;;;;;;;14.88;2.92;;;;;;;-141.50;100.00;63355.56;5011855;28;20066;-79
2022/07/08 00:31:48;;;;;;;17.70;2.90;;;;;;;-141.50;100.00;63355.56;5015375;28;20050;-81
2022/07/08 00:34:15;;;;;;;12.85;3.10;;;;;;;-141.50;100.00;63355.56;5025854;28;20253;-81
2022/07/08 00:36:41;;;;;;;16.80;3.00;;;;;;;-141.50;100.00;63355.56;5031252;28;20072;-80
2022/07/08 00:39:08;;;;;;;23.58;3.88;;;;;;;-141.50;100.00;63355.56;5019534;28;20136;-82
2022/07/08 00:41:35;;;;;;;16.45;3.08;;;;;;;-141.50;100.00;63355.56;5019380;28;20096;-81
2022/07/08 00:44:01;;;;;;;14.88;3.10;;;;;;;-141.50;100.00;63355.56;5018250;28;20467;-80
2022/07/08 00:46:28;;;;;;;15.73;2.85;;;;;;;-141.50;100.00;63355.56;5035398;28;20049;-81
2022/07/08 00:48:55;;;;;;;19.70;3.20;;;;;;;-141.50;100.00;63355.56;5005302;28;20136;-80
2022/07/08 00:51:21;;;;;;;22.60;3.40;;;;;;;-141.50;100.00;63355.56;5016190;28;20053;-81
2022/07/08 00:53:52;;;;;;;29.90;3.72;;;;;;;-141.50;100.00;63355.56;5016825;28;20081;-79
2022/07/08 00:56:20;;;;;;;22.75;3.65;;;;;;;-141.50;100.00;63355.56;5014420;28;20046;-80
2022/07/08 00:58:48;;;;;;;21.40;3.70;;;;;;;-141.50;100.00;63355.56;5013615;28;20084;-80
2022/07/08 01:01:16;;;;;;;14.85;3.25;;;;;;;-141.50;100.00;63355.56;5013827;28;20406;-81
2022/07/08 01:03:46;;;;;;;21.27;2.97;;;;;;;-141.50;100.00;63355.56;5013443;28;20054;-80
2022/07/08 01:06:13;;;;;;;24.65;3.28;;;;;;;-141.50;100.00;63355.56;4996743;28;20054;-80
2022/07/08 01:08:40;;;;;;;22.92;3.92;;;;;;;-141.50;100.00;63355.56;5013541;28;20096;-80
2022/07/08 01:11:08;;;;;;;26.38;3.85;;;;;;;-141.50;100.00;63355.56;5012748;28;20072;-79
2022/07/08 01:13:36;;;;;;;19.75;3.30;;;;;;;-141.50;100.00;63355.56;4992373;28;20136;-82
2022/07/08 01:16:03;;;;;;;17.73;3.00;;;;;;;-141.50;100.00;63355.56;5012545;28;20103;-78
2022/07/08 01:18:31;;;;;;;20.08;3.00;;;;;;;-141.50;100.00;63355.56;5011734;28;20050;-79
2022/07/08 01:20:59;;;;;;;22.30;4.10;;;;;;;-141.50;100.00;63355.56;5012870;28;20054;-80
2022/07/08 01:23:26;;;;;;;19.27;2.80;;;;;;;-141.50;100.00;63355.56;5014644;28;20073;-80
2022/07/08 01:25:54;;;;;;;23.58;3.47;;;;;;;-141.50;100.00;63355.56;4998831;28;20050;-80
2022/07/08 01:28:21;;;;;;;18.25;2.85;;;;;;;-141.50;100.00;63355.56;4997967;28;20649;-80
2022/07/08 01:30:48;;;;;;;22.40;3.33;;;;;;;-141.50;100.00;63355.56;5016300;28;20088;-81
2022/07/08 01:33:14;;;;;;;23.55;3.08;;;;;;;-141.50;100.00;63355.56;5015146;28;20054;-79
2022/07/08 01:35:41;;;;;;;18.02;3.40;;;;;;;-141.50;100.00;63355.56;5015649;28;20161;-80
2022/07/08 01:38:07;;;;;;;21.35;3.30;;;;;;;-141.50;100.00;63355.56;5016380;28;20045;-80
2022/07/08 01:40:34;;;;;;;18.42;2.95;;;;;;;-141.50;100.00;63355.56;5015063;28;20474;-81
2022/07/08 01:43:01;;;;;;;22.15;3.22;;;;;;;-141.50;100.00;63355.56;5015710;28;20065;-80
2022/07/08 01:45:27;;;;;;;20.00;3.30;;;;;;;-141.50;100.00;63355.56;5025587;28;20049;-81
2022/07/08 01:47:54;;;;;;;20.05;2.97;;;;;;;-141.50;100.00;63355.56;5030665;28;20054;-81
2022/07/08 01:50:20;;;;;;;23.63;2.70;;;;;;;-141.50;100.00;63355.56;5015948;28;20073;-79
2022/07/08 01:52:47;;;;;;;22.75;2.92;;;;;;;-141.50;100.00;63355.56;5015073;28;20062;-80
2022/07/08 01:55:13;;;;;;;16.02;3.00;;;;;;;-141.50;100.00;63355.56;5016463;28;20061;-80
2022/07/08 01:57:40;;;;;;;24.13;4.10;;;;;;;-141.50;100.00;63355.56;5017635;28;20081;-80
2022/07/08 02:00:07;;;;;;;21.85;3.58;;;;;;;-141.50;100.00;63355.56;5015443;28;20096;-81
2022/07/08 02:02:42;;;;;;;22.85;2.95;;;;;;;-141.50;100.00;63355.56;5015041;28;20671;-81
2022/07/08 02:05:09;;;;;;;19.67;2.60;;;;;;;-141.50;100.00;63355.56;5014794;28;20050;-81
2022/07/08 02:07:36;;;;;;;19.90;3.72;;;;;;;-141.50;100.00;63355.56;4997740;28;20065;-80
2022/07/08 02:10:04;;;;;;;26.52;3.58;;;;;;;-141.50;100.00;63355.56;5015337;28;20081;-78
2022/07/08 02:12:30;;;;;;;15.95;3.13;;;;;;;-141.50;100.00;63355.56;5015010;28;20054;-77
2022/07/08 02:15:02;;;;;;;19.65;2.97;;;;;;;-141.50;100.00;63355.56;4996937;28;20049;-80
2022/07/08 02:17:34;;;;;;;18.23;3.22;;;;;;;-141.50;100.00;63355.56;5014659;28;20053;-80
2022/07/08 02:20:05;;;;;;;15.00;2.75;;;;;;;-141.50;100.00;63355.56;5014099;28;20139;-80
2022/07/08 02:22:32;;;;;;;23.92;3.17;;;;;;;-141.50;100.00;63355.56;5017112;28;20049;-80
2022/07/08 02:24:59;;;;;;;19.60;3.25;;;;;;;-141.50;100.00;63355.56;5016343;28;20046;-81
2022/07/08 02:27:26;;;;;;;24.08;2.95;;;;;;;-141.50;100.00;63355.56;5016813;28;20054;-81
2022/07/08 02:29:52;;;;;;;20.27;3.25;;;;;;;-141.50;100.00;63355.56;5016007;28;20114;-81
2022/07/08 02:32:19;;;;;;;20.58;3.20;;;;;;;-141.50;100.00;63355.56;5014418;28;20085;-81
2022/07/08 02:34:45;;;;;;;28.65;3.00;;;;;;;-141.50;100.00;63355.56;5016117;28;20491;-80
2022/07/08 02:37:13;;;;;;;21.80;3.20;;;;;;;-141.50;100.00;63355.56;5016391;28;20053;-80
2022/07/08 02:39:40;;;;;;;21.92;3.67;;;;;;;-141.50;100.00;63355.56;5016485;28;20050;-80
2022/07/08 02:42:08;;;;;;;22.00;3.15;;;;;;;-141.50;100.00;63355.56;5016830;28;20962;-80
2022/07/08 02:44:36;;;;;;;31.80;3.17;;;;;;;-141.50;100.00;63355.56;5017234;28;20057;-78
2022/07/08 02:47:07;;;;;;;22.88;3.45;;;;;;;-141.50;100.00;63355.56;5035450;28;20129;-79
2022/07/08 02:49:34;;;;;;;19.92;3.13;;;;;;;-141.50;100.00;63355.56;5015809;28;20446;-80
2022/07/08 02:52:00;;;;;;;15.23;3.28;;;;;;;-141.50;100.00;63355.56;5015395;28;20132;-79
2022/07/08 02:54:27;;;;;;;19.40;3.63;;;;;;;-141.50;100.00;63355.56;5015408;28;20050;-80
2022/07/08 02:56:53;;;;;;;18.73;3.45;;;;;;;-141.50;100.00;63355.56;5015269;28;20046;-80
2022/07/08 02:59:20;;;;;;;21.70;3.67;;;;;;;-141.50;100.00;63355.56;5029450;28;20085;-79
2022/07/08 03:01:47;;;;;;;24.95;3.80;;;;;;;-141.50;100.00;63355.56;5044341;28;20064;-80
2022/07/08 03:04:13;;;;;;;22.20;3.53;;;;;;;-141.50;100.00;63355.56;5034319;28;20099;-80
2022/07/08 03:06:40;;;;;;;27.60;3.88;;;;;;;-141.50;100.00;63355.56;5035089;28;20053;-80
2022/07/08 03:09:06;;;;;;;29.70;3.95;;;;;;;-141.50;100.00;63355.56;5051680;28;20046;-80
2022/07/08 03:11:33;;;;;;;27.38;3.65;;;;;;;-141.50;100.00;63355.56;5055379;28;20030;-80
2022/07/08 03:14:00;;;;;;;19.17;4.22;;;;;;;-141.50;100.00;63355.56;5045710;28;20395;-80
2022/07/08 03:16:31;;;;;;;24.02;4.65;;;;;;;-141.50;100.00;63355.56;5035753;28;20061;-80
2022/07/08 03:18:58;;;;;;;27.38;4.30;;;;;;;-141.50;100.00;63355.56;5034158;28;20053;-80
2022/07/08 03:21:24;;;;;;;17.30;4.05;;;;;;;-141.50;100.00;63355.56;5032777;28;20097;-79
2022/07/08 03:23:51;;;;;;;20.30;4.40;;;;;;;-141.50;100.00;63355.56;5034879;28;20041;-81
2022/07/08 03:26:17;;;;;;;27.58;4.80;;;;;;;-141.50;100.00;63355.56;5035084;28;20053;-80
2022/07/08 03:28:44;;;;;;;25.48;4.57;;;;;;;-141.50;100.00;63355.56;5016204;28;20781;-79
2022/07/08 03:31:10;;;;;;;26.08;4.63;;;;;;;-141.50;100.00;63355.56;5033763;28;20129;-81
2022/07/08 03:33:38;;;;;;;19.75;4.00;;;;;;;-141.50;100.00;63355.56;5032844;28;20092;-80
2022/07/08 03:36:06;;;;;;;17.55;3.90;;;;;;;-141.50;100.00;63355.56;5033930;28;20049;-80
2022/07/08 03:38:34;;;;;;;29.05;4.28;;;;;;;-141.50;100.00;63355.56;5016021;28;20072;-80
2022/07/08 03:43:48;;;;;;;19.45;3.97;;;;;;;-141.50;100.00;63355.56;5033409;28;20104;-81
2022/07/08 03:46:14;;;;;;;26.02;3.88;;;;;;;-141.50;100.00;63355.56;5033800;28;20107;-82
2022/07/08 03:48:41;;;;;;;30.42;4.28;;;;;;;-141.50;100.00;63355.56;5033663;28;20045;-80
2022/07/08 03:51:09;;;;;;;24.77;4.45;;;;;;;-141.50;100.00;63355.56;5032052;28;20471;-80
2022/07/08 03:53:35;;;;;;;27.73;5.13;;;;;;;-141.50;100.00;63355.56;5032913;28;20138;-80
2022/07/08 03:56:05;;;;;;;22.27;4.20;;;;;;;-141.50;100.00;63355.56;5033581;28;20067;-80
2022/07/08 03:58:34;;;;;;;24.70;4.05;;;;;;;-141.50;100.00;63355.56;5034486;28;20552;-80
2022/07/08 04:01:01;;;;;;;21.92;3.83;;;;;;;-141.50;100.00;63355.56;5030204;28;20045;-80
2022/07/08 04:03:28;;;;;;;27.52;4.43;;;;;;;-141.50;100.00;63355.56;5033223;28;20053;-80
2022/07/08 04:05:55;;;;;;;31.00;4.60;;;;;;;-141.50;100.00;63355.56;5033307;28;20053;-83
2022/07/08 04:08:22;;;;;;;22.58;3.65;;;;;;;-141.50;100.00;63355.56;5032097;28;20157;-80
2022/07/08 04:10:48;;;;;;;25.30;3.70;;;;;;;-141.50;100.00;63355.56;5030959;28;20085;-77
2022/07/08 04:13:15;;;;;;;23.88;3.83;;;;;;;-141.50;100.00;63355.56;5031904;28;20119;-79
2022/07/08 04:15:49;;;;;;;21.75;3.50;;;;;;;-141.50;100.00;63355.56;5032681;28;20075;-80
2022/07/08 04:18:15;;;;;;;31.52;3.95;;;;;;;-141.50;100.00;63355.56;5032138;28;20072;-81
2022/07/08 04:20:42;;;;;;;18.98;3.78;;;;;;;-141.50;100.00;63355.56;5032077;28;20359;-80
2022/07/08 04:23:09;;;;;;;21.45;3.40;;;;;;;-141.50;100.00;63355.56;5033085;28;20673;-79
2022/07/08 04:25:35;;;;;;;11.68;3.13;;;;;;;-141.50;100.00;63355.56;5032514;28;20125;-79
2022/07/08 04:28:02;;;;;;;22.45;3.90;;;;;;;-141.50;100.00;63355.56;5032451;28;20478;-80
2022/07/08 04:30:28;;;;;;;24.42;3.90;;;;;;;-141.50;100.00;63355.56;5032654;28;20796;-80
2022/07/08 04:32:55;;;;;;;30.88;4.22;;;;;;;-141.50;100.00;63355.56;5013292;28;20053;-79
2022/07/08 04:35:22;;;;;;;23.35;3.88;;;;;;;-141.50;100.00;63355.56;5031964;28;20052;-80
2022/07/08 04:37:48;;;;;;;23.75;4.10;;;;;;;-141.50;100.00;63355.56;5030493;28;20045;-79
2022/07/08 04:40:15;;;;;;;31.23;4.47;;;;;;;-141.50;100.00;63355.56;5014625;28;20152;-79
2022/07/08 04:42:42;;;;;;;30.10;3.55;;;;;;;-141.50;100.00;63355.56;5013817;28;20060;-80
2022/07/08 04:45:09;;;;;;;15.65;3.63;;;;;;;-141.50;100.00;63355.56;5032002;28;20101;-81
2022/07/08 04:47:35;;;;;;;26.50;4.60;;;;;;;-141.50;100.00;63355.56;5028357;28;20052;-80
2022/07/08 04:50:02;;;;;;;25.50;4.07;;;;;;;-141.50;100.00;63355.56;4995314;28;20479;-81
2022/07/08 04:52:29;;;;;;;38.08;5.20;;;;;;;-141.50;100.00;63355.56;5012753;28;20134;-82
2022/07/08 04:54:55;;;;;;;16.45;3.90;;;;;;;-141.50;100.00;63355.56;5015108;28;20092;-80
2022/07/08 04:57:22;;;;;;;26.95;4.57;;;;;;;-141.50;100.00;63355.56;5018255;28;20065;-80
2022/07/08 04:59:49;;;;;;;25.48;4.65;;;;;;;-141.50;100.00;63355.56;5015756;28;20137;-81
2022/07/08 05:02:15;;;;;;;31.55;5.35;;;;;;;-141.50;100.00;63355.56;5016128;28;20049;-80
2022/07/08 05:04:42;;;;;;;19.23;4.60;;;;;;;-141.50;100.00;63355.56;5015503;28;20057;-81
2022/07/08 05:07:08;;;;;;;26.73;5.32;;;;;;;-141.50;100.00;63355.56;5017884;28;20054;-80
2022/07/08 05:09:35;;;;;;;21.45;5.18;;;;;;;-141.50;100.00;63355.56;5036528;28;20084;-80
2022/07/08 05:12:02;;;;;;;31.95;6.22;;;;;;;-141.50;100.00;63355.56;5035487;28;20152;-80
2022/07/08 05:14:28;;;;;;;31.67;5.97;;;;;;;-141.50;100.00;63355.56;5036237;28;20053;-80
2022/07/08 05:16:55;;;;;;;30.27;5.68;;;;;;;-141.50;100.00;63355.56;5035108;28;20068;-82
2022/07/08 05:19:21;;;;;;;23.88;5.85;;;;;;;-141.50;100.00;63355.56;5035669;28;20054;-80
2022/07/08 05:21:48;;;;;;;25.90;5.95;;;;;;;-141.50;100.00;63355.56;5017293;28;20544;-81
2022/07/08 05:24:14;;;;;;;20.58;6.10;;;;;;;-141.50;100.00;63355.56;5036066;28;20093;-81
2022/07/08 05:26:41;;;;;;;24.45;6.97;;;;;;;-141.50;100.00;63355.56;5037375;28;20053;-81
2022/07/08 05:29:08;;;;;;;30.75;7.20;;;;;;;-141.50;100.00;63355.56;5018128;28;20075;-80
2022/07/08 05:31:34;;;;;;;36.65;7.65;;;;;;;-141.50;100.00;63355.56;5035397;28;20073;-81
2022/07/08 05:34:01;;;;;;;28.63;7.45;;;;;;;-141.50;100.00;63355.56;5031295;28;20141;-80
2022/07/08 05:36:29;;;;;;;29.75;7.63;;;;;;;-141.50;100.00;63355.56;5022914;28;20492;-78
2022/07/08 05:38:55;;;;;;;38.88;8.70;;;;;;;-141.50;100.00;63355.56;5028588;28;20508;-81
2022/07/08 05:41:22;;;;;;;30.20;9.30;;;;;;;-141.50;100.00;63355.56;5026620;28;20054;-79
2022/07/08 05:43:48;;;;;;;34.22;10.70;;;;;;;-141.50;100.00;63355.56;5030018;28;20057;-80
2022/07/08 05:46:15;;;;;;;34.85;9.57;;;;;;;-141.50;100.00;63355.56;5029425;28;20068;-80
2022/07/08 05:48:41;;;;;;;38.88;10.00;;;;;;;-141.50;100.00;63355.56;5025010;28;20064;-80
2022/07/08 05:51:08;;;;;;;46.97;10.25;;;;;;;-141.50;100.00;63355.56;5029465;28;20583;-80
2022/07/08 05:53:34;;;;;;;37.10;10.15;;;;;;;-141.50;100.00;63355.56;5031643;28;20045;-79
2022/07/08 05:56:01;;;;;;;47.00;12.57;;;;;;;-141.50;100.00;63355.56;5031468;28;20111;-80
2022/07/08 05:58:28;;;;;;;37.45;12.27;;;;;;;-141.50;100.00;63355.56;5029678;28;20542;-78
2022/07/08 06:00:55;;;;;;;41.05;11.63;;;;;;;-141.50;100.00;63355.56;5030698;28;20054;-79
2022/07/08 06:03:21;;;;;;;35.88;13.55;;;;;;;-141.50;100.00;63355.56;5028645;28;20702;-80
2022/07/08 06:05:48;;;;;;;38.65;12.68;;;;;;;-141.50;100.00;63355.56;5031823;28;20085;-79
2022/07/08 06:08:14;;;;;;;33.70;13.73;;;;;;;-141.50;100.00;63355.56;5020562;28;20156;-79
2022/07/08 06:10:41;;;;;;;55.08;14.90;;;;;;;-141.50;100.00;63355.56;5041293;28;20057;-80
2022/07/08 06:13:07;;;;;;;46.88;14.70;;;;;;;-141.50;100.00;63355.56;5042342;28;20057;-79
2022/07/08 06:15:34;;;;;;;42.72;15.10;;;;;;;-141.50;100.00;63355.56;5027089;28;20049;-80
2022/07/08 06:18:00;;;;;;;35.28;14.45;;;;;;;-141.50;100.00;63355.56;5020600;28;20064;-80
2022/07/08 06:20:27;;;;;;;36.55;16.20;;;;;;;-141.50;100.00;63355.56;5026704;28;20056;-81
2022/07/08 06:22:54;;;;;;;36.72;16.70;;;;;;;-141.50;100.00;63355.56;5044237;28;20049;-80
2022/07/08 06:25:21;;;;;;;39.80;16.90;;;;;;;-141.50;100.00;63355.56;5028487;28;20397;-80
2022/07/08 06:27:47;;;;;;;34.72;15.15;;;;;;;-141.50;100.00;63355.56;5041116;28;20068;-79
2022/07/08 06:30:14;;;;;;;32.65;15.38;;;;;;;-141.50;100.00;63355.56;5042090;28;20085;-80
2022/07/08 06:32:40;;;;;;;34.22;15.65;;;;;;;-141.50;100.00;63355.56;5039060;28;20036;-79
2022/07/08 06:35:07;;;;;;;44.20;16.88;;;;;;;-141.50;100.00;63355.56;5052531;28;20040;-80
2022/07/08 06:37:34;;;;;;;34.95;16.70;;;;;;;-141.50;100.00;63355.56;5040533;28;20054;-79
2022/07/08 06:40:02;;;;;;;39.95;18.45;;;;;;;-141.50;100.00;63355.56;5030750;28;20204;-79
2022/07/08 06:42:28;;;;;;;43.47;19.20;;;;;;;-141.50;100.00;63355.56;5030856;28;20132;-79
2022/07/08 06:44:55;;;;;;;39.50;19.73;;;;;;;-141.50;100.00;63355.56;5028050;28;20077;-78
2022/07/08 06:47:22;;;;;;;51.67;21.48;;;;;;;-141.50;100.00;63355.56;5027507;28;20053;-78
2022/07/08 06:49:52;;;;;;;50.35;22.73;;;;;;;-141.50;100.00;63355.56;5009768;28;20089;-80
2022/07/08 06:52:19;;;;;;;48.13;22.55;;;;;;;-141.50;100.00;63355.56;5007560;28;20057;-80
2022/07/08 06:54:45;;;;;;;47.63;21.83;;;;;;;-141.50;100.00;63355.56;5031211;28;20124;-80
2022/07/08 06:57:12;;;;;;;62.53;24.25;;;;;;;-141.50;100.00;63355.56;5029910;28;20103;-81
2022/07/08 06:59:39;;;;;;;54.85;24.27;;;;;;;-141.50;100.00;63355.56;5028719;28;20073;-81
2022/07/08 07:02:26;;;;;;;56.03;23.88;;;;;;;-141.50;100.00;63355.56;5029143;28;20049;-81
2022/07/08 07:04:53;;;;;;;54.40;22.40;;;;;;;-141.50;100.00;63355.56;5033065;28;20326;-81
2022/07/08 07:07:19;;;;;;;58.00;21.80;;;;;;;-141.50;100.00;63355.56;5034167;28;20097;-79
2022/07/08 07:09:47;;;;;;;49.67;21.77;;;;;;;-141.50;100.00;63355.56;5034531;28;20049;-80
2022/07/08 07:12:14;;;;;;;54.90;21.30;;;;;;;-141.50;100.00;63355.56;5033591;28;20115;-79
2022/07/08 07:14:42;;;;;;;62.47;21.02;;;;;;;-141.50;100.00;63355.56;5030458;28;20449;-80
2022/07/08 07:17:08;;;;;;;52.10;21.45;;;;;;;-141.50;100.00;63355.56;5033401;28;20050;-80
2022/07/08 07:19:35;;;;;;;49.33;20.77;;;;;;;-141.50;100.00;63355.56;5033201;28;20148;-78
2022/07/08 07:22:02;;;;;;;57.85;22.70;;;;;;;-141.50;100.00;63355.56;5031649;28;20072;-80
2022/07/08 07:24:29;;;;;;;43.63;21.42;;;;;;;-141.50;100.00;63355.56;5033175;28;20068;-80
2022/07/08 07:26:55;;;;;;;48.47;21.58;;;;;;;-141.50;100.00;63355.56;5031548;28;20092;-77
2022/07/08 07:29:22;;;;;;;52.42;22.20;;;;;;;-141.50;100.00;63355.56;5036567;28;20088;-80
2022/07/08 07:31:48;;;;;;;55.95;21.80;;;;;;;-141.50;100.00;63355.56;5033635;28;20092;-79
2022/07/08 07:34:15;;;;;;;43.42;22.08;;;;;;;-141.50;100.00;63355.56;5033955;28;20544;-80
2022/07/08 07:36:42;;;;;;;51.63;22.10;;;;;;;-141.50;100.00;63355.56;5033895;28;20049;-80
2022/07/08 07:39:09;;;;;;;56.50;22.65;;;;;;;-141.50;100.00;63355.56;5033144;28;20497;-80
2022/07/08 07:41:37;;;;;;;53.10;20.65;;;;;;;-141.50;100.00;63355.56;5015731;28;20335;-78
2022/07/08 07:44:06;;;;;;;47.50;20.77;;;;;;;-141.50;100.00;63355.56;5015062;28;20061;-78
2022/07/08 07:46:33;;;;;;;55.08;21.67;;;;;;;-141.50;100.00;63355.56;5030242;28;20109;-79
2022/07/08 07:49:00;;;;;;;46.70;20.50;;;;;;;-141.50;100.00;63355.56;5028394;28;20049;-80
2022/07/08 07:51:27;;;;;;;59.28;21.83;;;;;;;-141.50;100.00;63355.56;5032415;28;20111;-79
2022/07/08 07:53:54;;;;;;;63.28;20.75;;;;;;;-141.50;100.00;63355.56;5015279;28;20231;-80
2022/07/08 07:56:22;;;;;;;60.78;20.83;;;;;;;-141.50;100.00;63355.56;5033373;28;20045;-80
2022/07/08 07:58:48;;;;;;;48.10;19.45;;;;;;;-141.50;100.00;63355.56;5031636;28;20108;-80
2022/07/08 08:01:15;;;;;;;51.28;19.02;;;;;;;-141.50;100.00;63355.56;5032394;28;20442;-79
2022/07/08 08:03:42;;;;;;;49.10;19.17;;;;;;;-141.50;100.00;63355.56;5014002;28;20061;-80
2022/07/08 08:06:09;;;;;;;44.92;18.70;;;;;;;-141.50;100.00;63355.56;5032847;28;20390;-80
2022/07/08 08:08:35;;;;;;;41.15;17.85;;;;;;;-141.50;100.00;63355.56;5032615;28;20049;-79
2022/07/08 08:11:03;;;;;;;44.40;18.33;;;;;;;-141.50;100.00;63355.56;5032815;28;20046;-80
2022/07/08 08:13:30;;;;;;;44.95;17.67;;;;;;;-141.50;100.00;63355.56;5032434;28;20053;-80
2022/07/08 08:15:56;;;;;;;50.80;17.65;;;;;;;-141.50;100.00;63355.56;5033322;28;20063;-79
2022/07/08 08:18:23;;;;;;;50.60;16.17;;;;;;;-141.50;100.00;63355.56;5032782;28;20517;-79
2022/07/08 08:20:50;;;;;;;35.15;16.23;;;;;;;-141.50;100.00;63355.56;5032600;28;20351;-80
2022/07/08 08:23:17;;;;;;;39.20;14.43;;;;;;;-141.50;100.00;63355.56;5032756;28;20144;-80
2022/07/08 08:25:48;;;;;;;36.03;13.65;;;;;;;-141.50;100.00;63355.56;5031495;28;20053;-80
2022/07/08 08:28:15;;;;;;;31.02;12.75;;;;;;;-141.50;100.00;63355.56;5032415;28;20434;-81
2022/07/08 08:30:41;;;;;;;43.72;12.25;;;;;;;-141.50;100.00;63355.56;5029565;28;20080;-79
2022/07/08 08:33:08;;;;;;;28.73;10.80;;;;;;;-141.50;100.00;63355.56;5029487;28;20430;-80
2022/07/08 08:35:34;;;;;;;41.10;10.35;;;;;;;-141.50;100.00;63355.56;5032984;28;20068;-81
2022/07/08 08:38:01;;;;;;;36.25;10.00;;;;;;;-141.50;100.00;63355.56;5029126;28;20089;-81
2022/07/08 08:40:28;;;;;;;31.52;9.27;;;;;;;-141.50;100.00;63355.56;5035169;28;20084;-80
2022/07/08 08:42:55;;;;;;;35.10;9.98;;;;;;;-141.50;100.00;63355.56;5020216;28;20045;-80
2022/07/08 08:45:30;;;;;;;26.77;9.80;;;;;;;-141.50;100.00;63355.56;5035793;28;20534;-80
2022/07/08 08:48:00;;;;;;;30.80;9.48;;;;;;;-141.50;100.00;63355.56;5010946;28;20487;-80
2022/07/08 08:53:16;;;;;;;30.02;8.57;;;;;;;-141.50;100.00;63355.56;5017339;28;20072;-80
2022/07/08 08:55:44;;;;;;;26.23;6.88;;;;;;;-141.50;100.00;63355.56;5032499;28;20228;-79
2022/07/08 08:58:11;;;;;;;31.95;7.07;;;;;;;-141.50;100.00;63355.56;5016328;28;20073;-79
2022/07/08 09:00:38;;;;;;;18.48;5.82;;;;;;;-141.50;100.00;63355.56;5017378;28;20054;-79
2022/07/08 09:03:05;;;;;;;28.33;6.43;;;;;;;-141.50;100.00;63355.56;4997845;28;20447;-81
2022/07/08 09:05:32;;;;;;;20.90;5.30;;;;;;;-141.50;100.00;63355.56;5016190;28;20120;-80
2022/07/08 09:07:58;;;;;;;23.40;5.43;;;;;;;-141.50;100.00;63355.56;5016076;28;20050;-79
2022/07/08 09:10:26;;;;;;;18.30;5.78;;;;;;;-141.50;100.00;63355.56;4997900;28;20050;-79
2022/07/08 09:13:11;;;;;;;28.73;6.05;;;;;;;-141.50;100.00;63355.56;4997474;28;20054;-78
2022/07/08 09:15:47;;;;;;;18.02;5.40;;;;;;;-141.50;100.00;63355.56;5016531;28;20130;-81
2022/07/08 09:18:14;;;;;;;;;;;;;;;-141.50;100.00;63355.56;4998721;28;20149;-80
2022/07/08 09:20:42;;;;;;;21.10;6.22;;;;;;;-141.50;100.00;63355.56;4997207;28;19960;-81
2022/07/08 09:23:13;;;;;;;25.15;6.20;;;;;;;-141.50;100.00;63355.56;5016349;28;20108;-80
2022/07/08 09:25:40;;;;;;;18.77;5.68;;;;;;;-141.50;100.00;63355.56;4998127;28;20096;-81
2022/07/08 09:28:07;;;;;;;20.58;6.00;;;;;;;-141.50;100.00;63355.56;5014631;28;20085;-80
2022/07/08 09:30:33;;;;;;;18.67;5.78;;;;;;;-141.50;100.00;63355.56;5013735;28;20111;-81
2022/07/08 09:33:01;;;;;;;18.45;4.82;;;;;;;-141.50;100.00;63355.56;5016609;28;20053;-81
2022/07/08 09:35:33;;;;;;;24.60;4.45;;;;;;;-141.50;100.00;63355.56;5034769;28;20123;-80
2022/07/08 09:38:04;;;;;;;27.08;4.35;;;;;;;-141.50;100.00;63355.56;5034368;28;20112;-80
2022/07/08 09:40:32;;;;;;;19.85;4.07;;;;;;;-141.50;100.00;63355.56;5026358;28;20494;-78
2022/07/08 09:43:16;;;;;;;14.88;3.10;;;;;;;-141.50;100.00;63355.56;5032528;28;20084;-79
2022/07/08 09:45:43;;;;;;;16.17;3.08;;;;;;;-141.50;100.00;63355.56;5013837;28;20451;-80
2022/07/08 09:48:09;;;;;;;20.25;3.20;;;;;;;-141.50;100.00;63355.56;5008838;28;20111;-79
2022/07/08 09:50:44;;;;;;;17.38;3.00;;;;;;;-141.50;100.00;63355.56;5015822;28;20085;-78
2022/07/08 09:53:31;;;;;;;15.13;3.35;;;;;;;-141.50;100.00;63355.56;5033528;28;20059;-79
2022/07/08 09:56:00;;;;;;;14.32;3.15;;;;;;;-141.50;100.00;63355.56;5047678;28;20049;-79
2022/07/08 09:58:30;;;;;;;15.07;2.83;;;;;;;-141.50;100.00;63355.56;5050971;28;20045;-81
2022/07/08 10:00:58;;;;;;;20.95;2.85;;;;;;;-141.50;100.00;63355.56;5043163;28;20068;-79
2022/07/08 10:03:25;;;;;;;14.63;2.95;;;;;;;-141.50;100.00;63355.56;5016211;28;20155;-80
2022/07/08 10:05:52;;;;;;;15.32;2.63;;;;;;;-141.50;100.00;63355.56;5006689;28;20049;-80
2022/07/08 10:08:18;;;;;;;15.02;2.75;;;;;;;-141.50;100.00;63355.56;5027490;28;20049;-80
2022/07/08 10:10:48;;;;;;;16.73;2.95;;;;;;;-141.50;100.00;63355.56;5023224;28;20084;-79
2022/07/08 10:13:18;;;;;;;16.83;3.13;;;;;;;-141.50;100.00;63355.56;5023208;28;20433;-79
2022/07/08 10:15:48;;;;;;;12.85;3.08;;;;;;;-141.50;100.00;63355.56;5014656;28;20049;-80
2022/07/08 10:18:20;;;;;;;18.17;3.92;;;;;;;-141.50;100.00;63355.56;5033988;28;20081;-79
2022/07/08 10:20:51;;;;;;;13.68;4.70;;;;;;;-141.50;100.00;63355.56;5031672;28;20504;-79
2022/07/08 10:23:38;;;;;;;16.92;5.05;;;;;;;-141.50;100.00;63355.56;5034294;28;20413;-79
2022/07/08 10:26:06;;;;;;;16.75;4.60;;;;;;;-141.50;100.00;63355.56;5031623;28;20053;-79
2022/07/08 10:28:41;;;;;;;17.67;3.75;;;;;;;-141.50;100.00;63355.56;5032261;28;20045;-78
2022/07/08 10:31:19;;;;;;;23.33;4.95;;;;;;;-141.50;100.00;63355.56;5031658;28;20488;-78
2022/07/08 10:33:47;;;;;;;24.27;4.68;;;;;;;-141.50;100.00;63355.56;5031168;28;20064;-79
2022/07/08 10:36:18;;;;;;;18.30;4.28;;;;;;;-141.50;100.00;63355.56;5032746;28;20103;-80
2022/07/08 10:38:44;;;;;;;18.70;4.40;;;;;;;-141.50;100.00;63355.56;5033527;28;20156;-78
2022/07/08 10:41:22;;;;;;;20.88;4.15;;;;;;;-141.50;100.00;63355.56;5033327;28;20081;-78
2022/07/08 10:44:00;;;;;;;22.52;4.70;;;;;;;-141.50;100.00;63355.56;5029023;28;20112;-80
2022/07/08 10:46:27;;;;;;;15.27;3.50;;;;;;;-141.50;100.00;63355.56;5032844;28;20474;-80
2022/07/08 10:48:59;;;;;;;13.65;3.38;;;;;;;-141.50;100.00;63355.56;5031741;28;20123;-78
2022/07/08 10:51:26;;;;;;;17.20;3.40;;;;;;;-141.50;100.00;63355.56;5031217;28;20367;-79
2022/07/08 10:54:06;;;;;;;24.30;3.83;;;;;;;-141.50;100.00;63355.56;5030818;28;20049;-80
2022/07/08 10:56:49;;;;;;;19.00;3.50;;;;;;;-141.50;100.00;63355.56;5032064;28;20057;-79
2022/07/08 10:59:27;;;;;;;22.67;3.78;;;;;;;-141.50;100.00;63355.56;5029290;28;20070;-78
2022/07/08 11:02:05;;;;;;;19.10;3.35;;;;;;;-141.50;100.00;63355.56;5026037;28;20117;-79
2022/07/08 11:04:34;;;;;;;17.45;2.88;;;;;;;-141.50;100.00;63355.56;5019707;28;20056;-79
2022/07/08 11:07:16;;;;;;;20.67;3.03;;;;;;;-141.50;100.00;63355.56;5028931;28;20164;-77
2022/07/08 11:10:10;;;;;;;20.67;3.38;;;;;;;-141.50;100.00;63355.56;5036598;28;20046;-78